createdAt,value
2023-02-13T00:00:15.908Z,1025.40
2023-02-13T00:01:01.832Z,1025.40
2023-02-13T00:01:47.793Z,1025.50
2023-02-13T00:02:33.887Z,1025.50
2023-02-13T00:03:20.043Z,1025.50
2023-02-13T00:04:05.890Z,1025.40
2023-02-13T00:04:52.206Z,1025.40
2023-02-13T00:05:37.818Z,1025.40
2023-02-13T00:06:23.807Z,1025.40
2023-02-13T00:07:09.918Z,1025.30
2023-02-13T00:07:56.405Z,1025.70
2023-02-13T00:08:41.845Z,1025.70
2023-02-13T00:09:27.884Z,1025.40
2023-02-13T00:10:13.979Z,1025.19
2023-02-13T00:11:00.115Z,1025.40
2023-02-13T00:11:45.912Z,1025.50
2023-02-13T00:12:31.889Z,1025.50
2023-02-13T00:13:17.874Z,1025.19
2023-02-13T00:14:03.850Z,1025.30
2023-02-13T00:14:49.986Z,1025.40
2023-02-13T00:15:36.016Z,1025.40
2023-02-13T00:16:22.206Z,1025.40
2023-02-13T00:17:07.976Z,1025.50
2023-02-13T00:17:53.963Z,1025.40
2023-02-13T00:18:39.926Z,1025.40
2023-02-13T00:19:25.971Z,1025.30
2023-02-13T00:20:11.920Z,1025.30
2023-02-13T00:20:58.387Z,1025.40
2023-02-13T00:21:43.944Z,1025.40
2023-02-13T00:22:29.957Z,1025.50
2023-02-13T00:23:16.015Z,1025.40
2023-02-13T00:24:01.958Z,1025.30
2023-02-13T00:24:47.953Z,1025.40
2023-02-13T00:25:33.983Z,1025.40
2023-02-13T00:26:20.024Z,1025.60
2023-02-13T00:27:05.952Z,1025.30
2023-02-13T00:27:52.294Z,1025.30
2023-02-13T00:28:38.045Z,1025.30
2023-02-13T00:29:23.914Z,1025.40
2023-02-13T00:30:10.100Z,1025.50
2023-02-13T00:30:56.601Z,1025.40
2023-02-13T00:31:42.233Z,1025.40
2023-02-13T00:32:28.047Z,1025.60
2023-02-13T00:33:13.959Z,1025.19
2023-02-13T00:33:59.968Z,1025.30
2023-02-13T00:34:46.062Z,1025.40
2023-02-13T00:35:31.973Z,1025.40
2023-02-13T00:36:18.019Z,1025.40
2023-02-13T00:37:04.040Z,1025.50
2023-02-13T00:37:50.045Z,1025.50
2023-02-13T00:38:36.010Z,1025.50
2023-02-13T00:39:22.406Z,1025.50
2023-02-13T00:40:08.038Z,1025.50
2023-02-13T00:40:54.104Z,1025.30
2023-02-13T00:41:40.062Z,1025.30
2023-02-13T00:42:26.040Z,1025.30
2023-02-13T00:43:12.040Z,1025.50
2023-02-13T00:43:58.086Z,1025.40
2023-02-13T00:44:44.097Z,1025.40
2023-02-13T00:45:30.099Z,1025.50
2023-02-13T00:46:16.147Z,1025.30
2023-02-13T00:47:02.010Z,1025.09
2023-02-13T00:47:48.024Z,1025.30
2023-02-13T00:48:34.054Z,1025.30
2023-02-13T00:49:20.155Z,1025.09
2023-02-13T00:50:06.056Z,1025.40
2023-02-13T00:50:52.385Z,1025.30
2023-02-13T00:51:38.060Z,1025.30
2023-02-13T00:52:24.063Z,1025.30
2023-02-13T00:53:10.118Z,1025.40
2023-02-13T00:53:56.106Z,1025.40
2023-02-13T00:54:42.111Z,1025.40
2023-02-13T00:55:28.126Z,1025.09
2023-02-13T00:56:14.126Z,1025.30
2023-02-13T00:57:00.202Z,1025.19
2023-02-13T00:57:46.107Z,1025.19
2023-02-13T00:58:32.145Z,1025.19
2023-02-13T00:59:18.101Z,1025.40
2023-02-13T01:00:04.192Z,1025.30
2023-02-13T01:00:50.106Z,1025.40
2023-02-13T01:01:36.226Z,1025.40
2023-02-13T01:02:22.376Z,1025.40
2023-02-13T01:03:08.206Z,1025.30
2023-02-13T01:03:54.171Z,1025.19
2023-02-13T01:04:40.142Z,1025.19
2023-02-13T01:05:26.171Z,1025.40
2023-02-13T01:06:12.100Z,1025.30
2023-02-13T01:06:58.660Z,1025.30
2023-02-13T01:07:44.225Z,1025.30
2023-02-13T01:08:30.164Z,1025.30
2023-02-13T01:09:16.178Z,1025.30
2023-02-13T01:10:02.169Z,1025.19
2023-02-13T01:10:48.286Z,1025.30
2023-02-13T01:11:36.589Z,1025.30
2023-02-13T01:12:20.377Z,1025.30
2023-02-13T01:13:06.383Z,1025.40
2023-02-13T01:13:52.479Z,1025.50
2023-02-13T01:14:38.238Z,1025.50
2023-02-13T01:15:24.300Z,1025.50
2023-02-13T01:16:10.332Z,1025.30
2023-02-13T01:16:56.342Z,1025.40
2023-02-13T01:17:41.440Z,1025.40
2023-02-13T01:18:28.307Z,1025.09
2023-02-13T01:19:14.339Z,1025.40
2023-02-13T01:20:00.333Z,1025.19
2023-02-13T01:20:46.306Z,1025.30
2023-02-13T01:21:32.247Z,1025.30
2023-02-13T01:22:18.357Z,1025.40
2023-02-13T01:23:04.359Z,1025.19
2023-02-13T01:23:50.376Z,1025.19
2023-02-13T01:24:36.278Z,1025.19
2023-02-13T01:25:22.670Z,1025.19
2023-02-13T01:26:08.334Z,1025.40
2023-02-13T01:26:54.346Z,1025.19
2023-02-13T01:27:40.363Z,1025.19
2023-02-13T01:28:26.467Z,1025.09
2023-02-13T01:29:12.358Z,1025.09
2023-02-13T01:29:58.383Z,1025.50
2023-02-13T01:30:44.440Z,1025.50
2023-02-13T01:31:30.359Z,1025.30
2023-02-13T01:32:16.474Z,1025.30
2023-02-13T01:33:02.517Z,1025.19
2023-02-13T01:33:48.261Z,1025.30
2023-02-13T01:34:34.360Z,1025.30
2023-02-13T01:35:20.397Z,1025.19
2023-02-13T01:36:06.308Z,1025.19
2023-02-13T01:36:52.778Z,1025.40
2023-02-13T01:37:38.401Z,1025.40
2023-02-13T01:38:24.398Z,1025.50
2023-02-13T01:39:10.360Z,1025.50
2023-02-13T01:39:56.332Z,1025.40
2023-02-13T01:40:42.675Z,1025.40
2023-02-13T01:41:28.412Z,1025.60
2023-02-13T01:42:14.353Z,1025.30
2023-02-13T01:43:00.604Z,1025.50
2023-02-13T01:43:46.429Z,1025.50
2023-02-13T01:44:32.469Z,1025.50
2023-02-13T01:45:18.572Z,1025.30
2023-02-13T01:46:04.391Z,1025.40
2023-02-13T01:46:50.478Z,1025.30
2023-02-13T01:47:36.561Z,1025.30
2023-02-13T01:48:22.671Z,1025.30
2023-02-13T01:49:08.332Z,1025.09
2023-02-13T01:49:54.432Z,1025.40
2023-02-13T01:50:40.411Z,1025.40
2023-02-13T01:51:26.421Z,1025.40
2023-02-13T01:52:12.340Z,1024.99
2023-02-13T01:52:58.484Z,1025.40
2023-02-13T01:53:44.379Z,1025.40
2023-02-13T01:54:30.436Z,1025.50
2023-02-13T01:55:16.486Z,1025.19
2023-02-13T01:56:02.350Z,1025.40
2023-02-13T01:56:48.458Z,1025.09
2023-02-13T01:57:34.454Z,1025.09
2023-02-13T01:58:20.444Z,1025.40
2023-02-13T01:59:06.422Z,1025.19
2023-02-13T01:59:52.677Z,1025.19
2023-02-13T02:00:38.506Z,1025.19
2023-02-13T02:01:24.502Z,1025.19
2023-02-13T02:02:10.702Z,1025.09
2023-02-13T02:02:56.426Z,1025.30
2023-02-13T02:03:42.385Z,1025.30
2023-02-13T02:04:28.477Z,1025.19
2023-02-13T02:05:14.403Z,1024.99
2023-02-13T02:06:00.515Z,1025.50
2023-02-13T02:06:46.617Z,1025.30
2023-02-13T02:07:32.385Z,1025.30
2023-02-13T02:08:18.385Z,1025.30
2023-02-13T02:09:04.528Z,1025.19
2023-02-13T02:09:50.574Z,1025.19
2023-02-13T02:10:36.498Z,1025.19
2023-02-13T02:11:22.765Z,1025.30
2023-02-13T02:12:08.504Z,1025.09
2023-02-13T02:12:54.717Z,1025.19
2023-02-13T02:13:40.465Z,1025.19
2023-02-13T02:14:26.440Z,1025.40
2023-02-13T02:15:12.656Z,1025.09
2023-02-13T02:15:58.663Z,1024.99
2023-02-13T02:16:44.543Z,1024.99
2023-02-13T02:17:30.545Z,1025.30
2023-02-13T02:18:16.512Z,1025.19
2023-02-13T02:19:02.515Z,1024.99
2023-02-13T02:19:48.639Z,1025.09
2023-02-13T02:20:34.512Z,1025.09
2023-02-13T02:21:20.718Z,1025.09
2023-02-13T02:22:06.552Z,1025.40
2023-02-13T02:22:52.906Z,1025.19
2023-02-13T02:23:38.547Z,1025.19
2023-02-13T02:24:24.521Z,1025.09
2023-02-13T02:25:10.595Z,1025.40
2023-02-13T02:25:56.605Z,1025.19
2023-02-13T02:26:42.532Z,1025.19
2023-02-13T02:27:28.635Z,1024.99
2023-02-13T02:28:14.596Z,1025.09
2023-02-13T02:29:00.480Z,1024.99
2023-02-13T02:29:46.504Z,1024.99
2023-02-13T02:30:33.362Z,1024.99
2023-02-13T02:31:18.553Z,1025.19
2023-02-13T02:32:04.613Z,1025.19
2023-02-13T02:32:50.671Z,1025.09
2023-02-13T02:33:36.625Z,1025.09
2023-02-13T02:34:22.876Z,1025.30
2023-02-13T02:35:08.691Z,1025.30
2023-02-13T02:35:54.550Z,1025.19
2023-02-13T02:36:40.681Z,1025.19
2023-02-13T02:37:26.601Z,1025.30
2023-02-13T02:38:12.610Z,1025.09
2023-02-13T02:38:58.802Z,1025.09
2023-02-13T02:39:44.608Z,1025.09
2023-02-13T02:40:30.641Z,1025.30
2023-02-13T02:41:16.632Z,1025.19
2023-02-13T02:42:02.820Z,1025.19
2023-02-13T02:42:47.821Z,1025.19
2023-02-13T02:43:34.646Z,1025.30
2023-02-13T02:44:20.618Z,1025.19
2023-02-13T02:45:06.754Z,1025.09
2023-02-13T02:45:52.997Z,1025.30
2023-02-13T02:46:38.749Z,1025.30
2023-02-13T02:47:24.696Z,1025.19
2023-02-13T02:48:10.616Z,1025.09
2023-02-13T02:48:56.613Z,1025.19
2023-02-13T02:49:42.615Z,1025.19
2023-02-13T02:50:28.668Z,1025.09
2023-02-13T02:51:14.689Z,1025.30
2023-02-13T02:52:00.770Z,1024.89
2023-02-13T02:52:46.683Z,1025.30
2023-02-13T02:53:33.357Z,1025.30
2023-02-13T02:54:18.682Z,1024.99
2023-02-13T02:55:04.677Z,1025.19
2023-02-13T02:55:50.746Z,1025.09
2023-02-13T02:56:36.693Z,1025.09
2023-02-13T02:57:22.958Z,1025.09
2023-02-13T02:58:08.588Z,1025.09
2023-02-13T02:58:54.719Z,1025.19
2023-02-13T02:59:39.894Z,1025.19
2023-02-13T03:00:26.816Z,1025.09
2023-02-13T03:01:12.821Z,1025.30
2023-02-13T03:01:58.909Z,1025.09
2023-02-13T03:02:44.722Z,1025.09
2023-02-13T03:03:30.674Z,1025.30
2023-02-13T03:04:16.867Z,1025.09
2023-02-13T03:05:02.780Z,1025.30
2023-02-13T03:05:48.808Z,1025.19
2023-02-13T03:06:34.769Z,1025.19
2023-02-13T03:07:20.758Z,1025.40
2023-02-13T03:08:06.727Z,1025.09
2023-02-13T03:08:53.285Z,1025.30
2023-02-13T03:09:38.771Z,1025.30
2023-02-13T03:10:24.813Z,1025.19
2023-02-13T03:11:10.819Z,1025.30
2023-02-13T03:11:56.805Z,1025.19
2023-02-13T03:12:42.670Z,1025.19
2023-02-13T03:13:28.718Z,1025.19
2023-02-13T03:14:14.763Z,1025.19
2023-02-13T03:15:01.064Z,1025.40
2023-02-13T03:15:46.726Z,1025.19
2023-02-13T03:16:34.113Z,1025.19
2023-02-13T03:17:18.759Z,1025.40
2023-02-13T03:18:04.693Z,1025.19
2023-02-13T03:18:50.932Z,1025.40
2023-02-13T03:19:36.745Z,1025.40
2023-02-13T03:20:23.082Z,1025.40
2023-02-13T03:21:08.852Z,1025.30
2023-02-13T03:21:54.778Z,1025.30
2023-02-13T03:22:40.800Z,1025.30
2023-02-13T03:23:26.742Z,1025.09
2023-02-13T03:24:12.728Z,1025.40
2023-02-13T03:24:58.804Z,1025.19
2023-02-13T03:25:44.884Z,1025.19
2023-02-13T03:26:30.863Z,1025.19
2023-02-13T03:27:16.777Z,1025.09
2023-02-13T03:28:02.866Z,1025.09
2023-02-13T03:28:48.763Z,1025.30
2023-02-13T03:29:34.842Z,1025.30
2023-02-13T03:30:21.063Z,1025.09
2023-02-13T03:31:06.824Z,1025.40
2023-02-13T03:31:53.152Z,1025.40
2023-02-13T03:32:38.827Z,1025.40
2023-02-13T03:33:24.906Z,1025.40
2023-02-13T03:34:10.880Z,1025.60
2023-02-13T03:34:56.808Z,1025.30
2023-02-13T03:35:42.836Z,1025.30
2023-02-13T03:36:28.919Z,1025.19
2023-02-13T03:37:14.907Z,1025.09
2023-02-13T03:38:01.047Z,1025.30
2023-02-13T03:38:46.881Z,1025.50
2023-02-13T03:39:33.358Z,1025.50
2023-02-13T03:40:18.898Z,1025.30
2023-02-13T03:41:05.035Z,1025.40
2023-02-13T03:41:50.881Z,1025.19
2023-02-13T03:42:36.920Z,1025.19
2023-02-13T03:43:23.128Z,1025.09
2023-02-13T03:44:08.866Z,1025.19
2023-02-13T03:44:54.947Z,1025.30
2023-02-13T03:45:41.088Z,1025.30
2023-02-13T03:46:26.951Z,1025.40
2023-02-13T03:47:12.797Z,1025.19
2023-02-13T03:47:58.775Z,1025.40
2023-02-13T03:48:44.835Z,1025.40
2023-02-13T03:49:30.861Z,1025.60
2023-02-13T03:50:16.835Z,1025.30
2023-02-13T03:51:02.869Z,1025.19
2023-02-13T03:51:48.843Z,1025.40
2023-02-13T03:52:34.917Z,1025.40
2023-02-13T03:53:20.857Z,1025.40
2023-02-13T03:54:06.865Z,1025.40
2023-02-13T03:54:53.084Z,1025.50
2023-02-13T03:55:38.837Z,1025.50
2023-02-13T03:56:24.881Z,1025.30
2023-02-13T03:57:10.951Z,1025.30
2023-02-13T03:57:56.904Z,1025.40
2023-02-13T03:58:42.837Z,1025.40
2023-02-13T03:59:28.961Z,1025.30
2023-02-13T04:00:14.974Z,1025.09
2023-02-13T04:01:01.142Z,1025.40
2023-02-13T04:01:46.869Z,1025.30
2023-02-13T04:02:33.419Z,1025.30
2023-02-13T04:03:18.922Z,1025.30
2023-02-13T04:04:04.957Z,1025.19
2023-02-13T04:04:50.870Z,1025.30
2023-02-13T04:05:36.892Z,1025.30
2023-02-13T04:06:22.940Z,1025.19
2023-02-13T04:07:08.958Z,1025.30
2023-02-13T04:07:54.935Z,1025.40
2023-02-13T04:08:40.909Z,1025.40
2023-02-13T04:09:26.899Z,1025.30
2023-02-13T04:10:13.191Z,1025.60
2023-02-13T04:10:59.409Z,1025.30
2023-02-13T04:11:44.964Z,1025.30
2023-02-13T04:12:30.925Z,1025.30
2023-02-13T04:13:16.950Z,1025.19
2023-02-13T04:14:02.924Z,1025.40
2023-02-13T04:14:48.902Z,1025.40
2023-02-13T04:15:35.038Z,1025.40
2023-02-13T04:16:21.044Z,1025.50
2023-02-13T04:17:07.117Z,1025.40
2023-02-13T04:17:52.991Z,1025.50
2023-02-13T04:18:38.926Z,1025.50
2023-02-13T04:19:24.983Z,1025.40
2023-02-13T04:20:10.956Z,1025.40
2023-02-13T04:20:57.293Z,1025.19
2023-02-13T04:21:42.998Z,1025.19
2023-02-13T04:22:29.017Z,1025.40
2023-02-13T04:23:15.047Z,1025.40
2023-02-13T04:24:01.034Z,1025.40
2023-02-13T04:24:47.001Z,1025.30
2023-02-13T04:25:33.586Z,1025.30
2023-02-13T04:26:19.046Z,1025.19
2023-02-13T04:27:05.061Z,1025.40
2023-02-13T04:27:51.140Z,1025.30
2023-02-13T04:28:37.152Z,1025.30
2023-02-13T04:29:23.043Z,1025.19
2023-02-13T04:30:09.212Z,1025.50
2023-02-13T04:30:55.292Z,1025.40
2023-02-13T04:31:41.168Z,1025.40
2023-02-13T04:32:27.075Z,1025.30
2023-02-13T04:33:13.059Z,1025.30
2023-02-13T04:33:59.059Z,1025.40
2023-02-13T04:34:44.999Z,1025.40
2023-02-13T04:35:31.040Z,1025.40
2023-02-13T04:36:17.009Z,1025.50
2023-02-13T04:37:03.041Z,1025.40
2023-02-13T04:37:49.097Z,1025.19
2023-02-13T04:38:35.060Z,1025.19
2023-02-13T04:39:21.116Z,1025.30
2023-02-13T04:40:07.121Z,1025.19
2023-02-13T04:40:53.121Z,1025.30
2023-02-13T04:41:39.060Z,1025.30
2023-02-13T04:42:25.097Z,1025.40
2023-02-13T04:43:11.145Z,1025.19
2023-02-13T04:43:57.213Z,1025.30
2023-02-13T04:44:43.094Z,1025.30
2023-02-13T04:45:29.204Z,1025.40
2023-02-13T04:46:15.260Z,1025.19
2023-02-13T04:47:01.103Z,1025.19
2023-02-13T04:47:47.112Z,1025.19
2023-02-13T04:48:33.531Z,1025.19
2023-02-13T04:49:19.110Z,1025.30
2023-02-13T04:50:05.161Z,1025.30
2023-02-13T04:50:51.181Z,1025.30
2023-02-13T04:51:37.196Z,1025.30
2023-02-13T04:52:23.127Z,1025.40
2023-02-13T04:53:09.285Z,1025.09
2023-02-13T04:53:55.157Z,1025.19
2023-02-13T04:54:41.164Z,1025.19
2023-02-13T04:55:27.162Z,1025.30
2023-02-13T04:56:13.258Z,1025.19
2023-02-13T04:56:59.284Z,1025.19
2023-02-13T04:57:45.180Z,1025.19
2023-02-13T04:58:31.206Z,1025.09
2023-02-13T04:59:17.219Z,1025.30
2023-02-13T05:00:03.305Z,1025.30
2023-02-13T05:00:49.175Z,1025.19
2023-02-13T05:01:35.268Z,1025.19
2023-02-13T05:02:21.207Z,1025.30
2023-02-13T05:03:07.376Z,1025.30
2023-02-13T05:03:53.180Z,1025.19
2023-02-13T05:04:39.202Z,1025.19
2023-02-13T05:05:25.342Z,1025.30
2023-02-13T05:06:11.247Z,1025.30
2023-02-13T05:06:57.231Z,1025.30
2023-02-13T05:07:43.262Z,1025.30
2023-02-13T05:08:29.205Z,1025.30
2023-02-13T05:09:15.188Z,1025.40
2023-02-13T05:10:01.360Z,1025.30
2023-02-13T05:10:47.273Z,1025.40
2023-02-13T05:11:33.654Z,1025.40
2023-02-13T05:12:19.251Z,1025.30
2023-02-13T05:13:05.293Z,1025.30
2023-02-13T05:13:51.314Z,1025.40
2023-02-13T05:14:37.326Z,1025.40
2023-02-13T05:15:23.298Z,1025.19
2023-02-13T05:16:09.438Z,1025.19
2023-02-13T05:16:55.318Z,1025.19
2023-02-13T05:17:41.209Z,1025.19
2023-02-13T05:18:27.291Z,1025.19
2023-02-13T05:19:13.311Z,1025.40
2023-02-13T05:19:59.270Z,1025.09
2023-02-13T05:20:45.301Z,1025.09
2023-02-13T05:21:31.316Z,1025.40
2023-02-13T05:22:17.281Z,1025.50
2023-02-13T05:23:03.323Z,1025.19
2023-02-13T05:23:49.314Z,1025.50
2023-02-13T05:24:35.340Z,1025.50
2023-02-13T05:25:21.324Z,1025.40
2023-02-13T05:26:07.447Z,1025.50
2023-02-13T05:26:52.576Z,1025.50
2023-02-13T05:27:39.350Z,1025.30
2023-02-13T05:28:25.374Z,1025.50
2023-02-13T05:29:11.305Z,1025.19
2023-02-13T05:29:57.346Z,1025.40
2023-02-13T05:30:43.420Z,1025.40
2023-02-13T05:31:29.462Z,1025.40
2023-02-13T05:32:15.402Z,1025.30
2023-02-13T05:33:01.912Z,1025.30
2023-02-13T05:33:47.333Z,1025.30
2023-02-13T05:34:33.786Z,1025.30
2023-02-13T05:35:19.366Z,1025.40
2023-02-13T05:36:05.418Z,1025.30
2023-02-13T05:36:51.366Z,1025.50
2023-02-13T05:37:37.446Z,1025.50
2023-02-13T05:38:23.393Z,1025.40
2023-02-13T05:39:09.402Z,1025.09
2023-02-13T05:39:55.430Z,1025.09
2023-02-13T05:40:41.405Z,1025.09
2023-02-13T05:41:27.437Z,1025.19
2023-02-13T05:42:13.571Z,1025.19
2023-02-13T05:42:59.386Z,1025.19
2023-02-13T05:43:45.501Z,1025.19
2023-02-13T05:44:31.431Z,1025.30
2023-02-13T05:45:17.505Z,1025.19
2023-02-13T05:46:03.418Z,1025.30
2023-02-13T05:46:49.501Z,1025.19
2023-02-13T05:47:35.453Z,1025.19
2023-02-13T05:48:21.461Z,1025.40
2023-02-13T05:49:07.535Z,1025.19
2023-02-13T05:49:53.451Z,1025.30
2023-02-13T05:50:39.413Z,1025.30
2023-02-13T05:51:25.540Z,1025.30
2023-02-13T05:52:11.481Z,1025.30
2023-02-13T05:52:57.474Z,1025.40
2023-02-13T05:53:43.493Z,1025.40
2023-02-13T05:54:29.430Z,1025.19
2023-02-13T05:55:15.513Z,1025.30
2023-02-13T05:56:01.535Z,1025.19
2023-02-13T05:56:47.455Z,1025.19
2023-02-13T05:57:34.807Z,1025.19
2023-02-13T05:58:19.505Z,1025.19
2023-02-13T05:59:05.540Z,1025.09
2023-02-13T05:59:51.540Z,1025.19
2023-02-13T06:00:37.740Z,1025.19
2023-02-13T06:01:23.611Z,1025.09
2023-02-13T06:02:09.501Z,1025.09
2023-02-13T06:02:55.596Z,1024.99
2023-02-13T06:03:41.526Z,1024.99
2023-02-13T06:04:27.547Z,1025.40
2023-02-13T06:05:13.575Z,1025.40
2023-02-13T06:05:59.494Z,1025.19
2023-02-13T06:06:45.523Z,1025.19
2023-02-13T06:07:30.799Z,1025.19
2023-02-13T06:08:17.509Z,1025.30
2023-02-13T06:09:03.561Z,1025.19
2023-02-13T06:09:49.531Z,1025.09
2023-02-13T06:10:35.596Z,1025.09
2023-02-13T06:11:21.610Z,1025.19
2023-02-13T06:12:07.655Z,1025.19
2023-02-13T06:12:53.582Z,1025.19
2023-02-13T06:13:39.549Z,1025.19
2023-02-13T06:14:25.600Z,1025.19
2023-02-13T06:15:11.631Z,1024.99
2023-02-13T06:15:57.672Z,1025.40
2023-02-13T06:16:43.676Z,1025.40
2023-02-13T06:17:29.598Z,1025.30
2023-02-13T06:18:15.562Z,1025.40
2023-02-13T06:19:01.597Z,1025.30
2023-02-13T06:19:47.633Z,1025.30
2023-02-13T06:20:33.833Z,1025.30
2023-02-13T06:21:19.611Z,1025.30
2023-02-13T06:22:05.653Z,1025.30
2023-02-13T06:22:51.626Z,1025.30
2023-02-13T06:23:37.717Z,1025.30
2023-02-13T06:24:23.584Z,1025.09
2023-02-13T06:25:09.664Z,1025.60
2023-02-13T06:25:55.700Z,1025.40
2023-02-13T06:26:41.594Z,1025.40
2023-02-13T06:27:27.690Z,1025.40
2023-02-13T06:28:13.820Z,1025.30
2023-02-13T06:28:59.626Z,1025.19
2023-02-13T06:29:45.691Z,1025.19
2023-02-13T06:30:31.750Z,1025.30
2023-02-13T06:31:17.737Z,1025.30
2023-02-13T06:32:03.722Z,1025.30
2023-02-13T06:32:49.623Z,1025.30
2023-02-13T06:33:35.682Z,1025.30
2023-02-13T06:34:21.680Z,1025.30
2023-02-13T06:35:07.750Z,1025.50
2023-02-13T06:35:53.680Z,1025.30
2023-02-13T06:36:39.685Z,1025.30
2023-02-13T06:37:25.713Z,1025.19
2023-02-13T06:38:11.645Z,1025.19
2023-02-13T06:38:57.824Z,1025.60
2023-02-13T06:39:43.806Z,1025.60
2023-02-13T06:40:29.784Z,1025.30
2023-02-13T06:41:15.735Z,1025.30
2023-02-13T06:42:01.848Z,1025.50
2023-02-13T06:42:47.731Z,1025.50
2023-02-13T06:43:33.974Z,1025.50
2023-02-13T06:44:19.808Z,1025.40
2023-02-13T06:45:05.936Z,1025.40
2023-02-13T06:45:51.767Z,1025.40
2023-02-13T06:46:37.924Z,1025.40
2023-02-13T06:47:23.740Z,1025.30
2023-02-13T06:48:09.810Z,1025.60
2023-02-13T06:48:55.943Z,1025.40
2023-02-13T06:49:41.774Z,1025.40
2023-02-13T06:50:27.772Z,1025.30
2023-02-13T06:51:13.871Z,1025.30
2023-02-13T06:51:59.902Z,1025.50
2023-02-13T06:52:45.818Z,1025.50
2023-02-13T06:53:31.844Z,1025.19
2023-02-13T06:54:17.822Z,1025.50
2023-02-13T06:55:03.902Z,1025.50
2023-02-13T06:55:49.820Z,1025.60
2023-02-13T06:56:36.022Z,1025.60
2023-02-13T06:57:21.847Z,1025.40
2023-02-13T06:58:07.927Z,1025.40
2023-02-13T06:58:53.913Z,1025.40
2023-02-13T06:59:39.901Z,1025.40
2023-02-13T07:00:27.077Z,1025.50
2023-02-13T07:01:11.969Z,1025.50
2023-02-13T07:01:57.896Z,1025.50
2023-02-13T07:02:43.985Z,1025.50
2023-02-13T07:03:29.950Z,1025.50
2023-02-13T07:04:15.910Z,1025.40
2023-02-13T07:05:01.893Z,1025.40
2023-02-13T07:05:47.954Z,1025.50
2023-02-13T07:06:34.433Z,1025.50
2023-02-13T07:07:19.874Z,1025.50
2023-02-13T07:08:05.956Z,1025.70
2023-02-13T07:08:51.880Z,1025.60
2023-02-13T07:09:37.938Z,1025.60
2023-02-13T07:10:23.978Z,1025.40
2023-02-13T07:11:09.896Z,1025.40
2023-02-13T07:11:55.970Z,1025.40
2023-02-13T07:12:41.970Z,1025.40
2023-02-13T07:13:28.049Z,1025.60
2023-02-13T07:14:14.028Z,1025.40
2023-02-13T07:14:59.953Z,1025.19
2023-02-13T07:15:46.175Z,1025.19
2023-02-13T07:16:32.017Z,1025.60
2023-02-13T07:18:08.207Z,1025.60
2023-02-13T07:19:44.399Z,1025.60
2023-02-13T07:21:20.554Z,1025.60
2023-02-13T07:22:56.736Z,1025.60
2023-02-13T07:24:32.924Z,1025.60
2023-02-13T07:26:09.225Z,1025.60
2023-02-13T07:27:45.403Z,1025.60
2023-02-13T07:29:21.576Z,1025.60
2023-02-13T07:30:58.293Z,1025.60
2023-02-13T07:32:34.691Z,1025.60
2023-02-13T07:34:10.882Z,1025.60
2023-02-13T07:35:47.094Z,1025.60
2023-02-13T07:37:23.259Z,1025.60
2023-02-13T07:38:59.442Z,1025.60
2023-02-13T07:40:35.596Z,1025.60
2023-02-13T07:42:11.781Z,1025.60
2023-02-13T07:43:47.960Z,1025.60
2023-02-13T07:45:24.210Z,1025.60
2023-02-13T07:47:00.364Z,1025.60
2023-02-13T07:48:36.591Z,1025.60
2023-02-13T07:50:12.766Z,1025.60
2023-02-13T07:51:48.943Z,1025.60
2023-02-13T07:53:25.108Z,1025.60
2023-02-13T07:55:01.262Z,1025.60
2023-02-13T07:56:37.446Z,1025.60
2023-02-13T07:58:13.609Z,1025.60
2023-02-13T07:59:49.798Z,1025.60
2023-02-13T08:01:26.029Z,1025.60
2023-02-13T08:03:02.216Z,1025.60
2023-02-13T08:04:38.385Z,1025.60
2023-02-13T08:06:14.596Z,1025.60
2023-02-13T08:07:50.774Z,1025.60
2023-02-13T08:09:26.940Z,1025.60
2023-02-13T08:11:03.131Z,1025.60
2023-02-13T08:12:39.342Z,1025.60
2023-02-13T08:14:15.500Z,1025.60
2023-02-13T08:15:51.756Z,1025.60
2023-02-13T08:17:27.927Z,1025.60
2023-02-13T08:18:19.994Z,1025.50
2023-02-13T08:19:04.222Z,1025.80
2023-02-13T08:19:50.260Z,1025.70
2023-02-13T08:20:36.417Z,1025.70
2023-02-13T08:21:22.236Z,1025.70
2023-02-13T08:22:08.342Z,1025.50
2023-02-13T08:22:54.220Z,1025.60
2023-02-13T08:23:40.359Z,1025.60
2023-02-13T08:24:26.354Z,1025.80
2023-02-13T08:25:12.286Z,1025.70
2023-02-13T08:25:58.620Z,1025.60
2023-02-13T08:26:44.315Z,1025.60
2023-02-13T08:27:30.278Z,1025.50
2023-02-13T08:28:16.379Z,1025.80
2023-02-13T08:29:02.335Z,1025.70
2023-02-13T08:29:48.237Z,1025.60
2023-02-13T08:30:34.392Z,1025.60
2023-02-13T08:31:20.509Z,1025.60
2023-02-13T08:32:06.390Z,1025.90
2023-02-13T08:32:54.106Z,1025.60
2023-02-13T08:33:38.345Z,1025.60
2023-02-13T08:34:24.270Z,1025.50
2023-02-13T08:35:10.254Z,1025.60
2023-02-13T08:35:56.823Z,1025.70
2023-02-13T08:36:42.283Z,1025.70
2023-02-13T08:37:28.348Z,1025.80
2023-02-13T08:38:14.401Z,1025.60
2023-02-13T08:39:00.343Z,1025.80
2023-02-13T08:39:46.375Z,1025.80
2023-02-13T08:40:32.407Z,1025.70
2023-02-13T08:41:18.413Z,1025.70
2023-02-13T08:42:04.412Z,1025.40
2023-02-13T08:42:50.352Z,1025.50
2023-02-13T08:43:36.435Z,1025.50
2023-02-13T08:44:22.353Z,1025.70
2023-02-13T08:45:08.406Z,1025.70
2023-02-13T08:45:54.559Z,1025.70
2023-02-13T08:46:40.400Z,1025.70
2023-02-13T08:47:26.415Z,1025.60
2023-02-13T08:48:12.363Z,1025.80
2023-02-13T08:48:58.332Z,1025.80
2023-02-13T08:49:44.409Z,1025.80
2023-02-13T08:50:30.332Z,1025.60
2023-02-13T08:51:16.528Z,1025.60
2023-02-13T08:52:02.734Z,1025.70
2023-02-13T08:52:48.449Z,1025.70
2023-02-13T08:53:34.396Z,1025.70
2023-02-13T08:54:20.422Z,1025.60
2023-02-13T08:55:06.473Z,1025.70
2023-02-13T08:55:52.471Z,1025.90
2023-02-13T08:56:38.415Z,1025.90
2023-02-13T08:57:24.402Z,1025.70
2023-02-13T08:58:10.401Z,1025.80
2023-02-13T08:58:56.511Z,1025.50
2023-02-13T08:59:42.460Z,1025.50
2023-02-13T09:00:28.562Z,1025.50
2023-02-13T09:01:14.566Z,1025.90
2023-02-13T09:02:00.487Z,1025.70
2023-02-13T09:02:46.522Z,1025.70
2023-02-13T09:03:32.475Z,1025.70
2023-02-13T09:04:18.426Z,1025.60
2023-02-13T09:05:04.453Z,1025.80
2023-02-13T09:05:50.666Z,1025.60
2023-02-13T09:06:36.716Z,1025.60
2023-02-13T09:07:23.300Z,1025.50
2023-02-13T09:08:08.625Z,1025.60
2023-02-13T09:08:54.569Z,1025.70
2023-02-13T09:09:40.617Z,1025.70
2023-02-13T09:10:26.651Z,1025.60
2023-02-13T09:11:12.593Z,1025.60
2023-02-13T09:11:59.118Z,1025.60
2023-02-13T09:12:44.639Z,1025.60
2023-02-13T09:13:30.601Z,1025.60
2023-02-13T09:14:16.663Z,1025.80
2023-02-13T09:15:02.992Z,1026.01
2023-02-13T09:15:48.521Z,1025.70
2023-02-13T09:16:34.570Z,1025.70
2023-02-13T09:17:20.865Z,1025.60
2023-02-13T09:18:06.820Z,1025.70
2023-02-13T09:18:53.306Z,1025.60
2023-02-13T09:19:38.664Z,1025.60
2023-02-13T09:20:24.728Z,1025.70
2023-02-13T09:21:10.791Z,1025.60
2023-02-13T09:21:56.724Z,1025.60
2023-02-13T09:22:42.686Z,1025.60
2023-02-13T09:23:28.754Z,1025.70
2023-02-13T09:24:14.751Z,1025.50
2023-02-13T09:25:00.696Z,1025.70
2023-02-13T09:25:46.711Z,1025.70
2023-02-13T09:26:32.710Z,1025.70
2023-02-13T09:27:18.689Z,1025.70
2023-02-13T09:28:04.823Z,1025.60
2023-02-13T09:28:50.759Z,1026.01
2023-02-13T09:29:36.778Z,1026.01
2023-02-13T09:30:23.579Z,1025.90
2023-02-13T09:31:08.902Z,1025.60
2023-02-13T09:31:54.862Z,1025.50
2023-02-13T09:32:40.814Z,1025.50
2023-02-13T09:33:26.806Z,1025.80
2023-02-13T09:34:12.873Z,1025.80
2023-02-13T09:34:58.784Z,1025.50
2023-02-13T09:35:44.806Z,1025.50
2023-02-13T09:36:30.870Z,1025.50
2023-02-13T09:37:16.803Z,1025.70
2023-02-13T09:38:02.828Z,1025.90
2023-02-13T09:38:48.786Z,1025.70
2023-02-13T09:39:34.782Z,1025.70
2023-02-13T09:40:20.942Z,1025.90
2023-02-13T09:41:06.821Z,1025.80
2023-02-13T09:41:53.356Z,1025.90
2023-02-13T09:42:38.774Z,1025.90
2023-02-13T09:43:24.832Z,1026.01
2023-02-13T09:44:10.879Z,1025.70
2023-02-13T09:44:56.865Z,1025.80
2023-02-13T09:45:42.909Z,1025.80
2023-02-13T09:46:28.964Z,1025.70
2023-02-13T09:47:14.876Z,1025.90
2023-02-13T09:48:00.824Z,1025.80